Hinton, Canada
Current Conditions -  °F | °C
As of 10:00 PM on Monday 20 Oct 2014 (Local Time) from CYET Reporting Station
Overcast Overcast  
Wind Chill: 44°   Ceiling: 16000
Heat Index: 48°   Visibility: 9mi
Dew Point: 36°   Wind: 10mph
Humidity: 62%   Direction: 300°WNW
Pressure: 29.56"   Gusts: NA
Location:  53.4°N, 117.58°W
Report Text: CYET 210400Z AUTO 30009KT 210V350 9SM FEW100 OVC160 09/02 A2956 RMK PRESRR SLP031 DENSITY ALT 3400FT
Loading
Personal Weather Stations






























Interactive Weather Map
Tropical Storm Tracking
New forecast layout! Learn more

10-Day Weather Forecast

Advertisements
Track Severe Weather on mobile